Terminal Aerodrome Forecast
Issued by NWS

Home | Current Version | Previous Version | Text Only | Print | Product List | Glossary On
Versions: 1 2 3 4 5 6 7 8 9 10 11 12 13 14 15 16 17 18 19 20 21 22
000
FTUS43 KILX 191733
TAFCMI
TAF
KCMI 191733Z 1918/2018 VRB04KT P6SM SCT008 BKN015
     FM192000 VRB04KT P6SM BKN020
     FM192200 VRB03KT P6SM SCT020
     FM200000 00000KT P6SM FEW150
     FM200900 VRB03KT 4SM BR SCT002
     FM201500 17005KT P6SM FEW200=

USA.gov is the U.S. government's official web portal to all federal, state and local government web resources and services.